Time;durP1;ratioP1;P1;durP2;ratioP2;P2;SDS_P1;SDS_P2;PMS_P1;PMS_P2;Temp;Humidity;BMP_temperature;BMP_pressure;BME280_temperature;BME280_humidity;BME280_pressure;Samples;Min_cycle;Max_cycle;Signal;HPM_P1;HPM_P2
2022/10/13 00:09:17;;;;;;;1999.90;999.90;;;10.80;99.90;;;;;;6745598;88;20699;-77
2022/10/13 00:19:18;;;;;;;1999.90;999.90;;;10.90;99.90;;;;;;6728711;88;20728;-78
2022/10/13 00:29:18;;;;;;;1999.90;999.90;;;10.90;99.90;;;;;;6742677;88;20356;-77
2022/10/13 00:39:19;;;;;;;1999.90;999.90;;;11.00;99.90;;;;;;6731211;88;20259;-76
2022/10/13 00:49:19;;;;;;;1999.90;999.90;;;11.00;99.90;;;;;;6719679;88;20186;-75
2022/10/13 00:59:26;;;;;;;1999.90;999.90;;;11.00;99.90;;;;;;6726158;88;20201;-76
2022/10/13 01:09:33;;;;;;;1999.90;999.90;;;10.80;99.90;;;;;;6723938;88;20234;-75
2022/10/13 01:19:48;;;;;;;1999.90;999.90;;;10.70;99.90;;;;;;6727607;88;20202;-78
2022/10/13 01:30:00;;;;;;;1999.90;999.90;;;10.60;99.90;;;;;;6732265;88;20209;-76
2022/10/13 01:40:31;;;;;;;1999.90;999.90;;;10.70;99.90;;;;;;6733169;88;20204;-78
2022/10/13 01:50:34;;;;;;;1999.90;999.90;;;10.70;99.90;;;;;;6728867;88;20193;-78
2022/10/13 02:00:43;;;;;;;1999.90;999.90;;;10.90;99.90;;;;;;6725341;88;20201;-78
2022/10/13 02:10:57;;;;;;;1999.90;999.90;;;10.90;99.90;;;;;;6728738;88;20638;-77
2022/10/13 02:20:59;;;;;;;1999.90;999.90;;;10.90;99.90;;;;;;6728747;88;20633;-77
2022/10/13 02:30:59;;;;;;;1999.90;999.90;;;10.70;99.90;;;;;;6730158;88;20206;-77
2022/10/13 02:41:01;;;;;;;1999.90;999.90;;;10.50;99.90;;;;;;6731685;88;20210;-77
2022/10/13 02:51:02;;;;;;;1999.90;999.90;;;10.40;99.90;;;;;;6726107;88;20348;-78
2022/10/13 03:01:11;;;;;;;1999.90;999.90;;;10.40;99.90;;;;;;6732144;88;20283;-77
2022/10/13 03:11:12;;;;;;;1999.90;999.90;;;10.40;99.90;;;;;;6735315;88;20185;-77
2022/10/13 03:21:12;;;;;;;1999.90;999.90;;;10.30;99.90;;;;;;6731128;88;20387;-77
2022/10/13 03:31:13;;;;;;;1999.90;999.90;;;10.40;99.90;;;;;;6733338;88;20195;-78
2022/10/13 03:41:17;;;;;;;1999.90;999.90;;;10.30;99.90;;;;;;6725693;77;20204;-77
2022/10/13 03:51:19;;;;;;;1999.90;999.90;;;10.20;99.90;;;;;;6670395;88;20684;-77
2022/10/13 04:01:21;;;;;;;1999.90;999.90;;;10.20;99.90;;;;;;6636791;88;20213;-77
2022/10/13 04:11:22;;;;;;;1999.90;999.90;;;10.30;99.90;;;;;;6630605;89;20215;-77
2022/10/13 04:21:24;;;;;;;1999.90;999.90;;;10.40;99.90;;;;;;6702897;88;20648;-77
2022/10/13 04:31:27;;;;;;;1999.90;999.90;;;10.40;99.90;;;;;;6716431;88;20185;-77
2022/10/13 04:41:28;;;;;;;1999.90;999.90;;;10.40;99.90;;;;;;6710808;88;20201;-78
2022/10/13 04:51:28;;;;;;;1999.90;999.90;;;10.50;99.90;;;;;;6717865;88;20288;-78
2022/10/13 05:01:29;;;;;;;1999.90;999.90;;;10.60;99.90;;;;;;6721539;88;20204;-78
2022/10/13 05:11:30;;;;;;;1999.90;999.90;;;10.80;99.90;;;;;;6677656;88;20347;-77
2022/10/13 05:21:31;;;;;;;1999.90;999.90;;;11.00;99.90;;;;;;6681287;88;20198;-77
2022/10/13 05:31:33;;;;;;;1999.90;999.90;;;11.20;99.90;;;;;;6717217;88;20196;-78
2022/10/13 05:41:34;;;;;;;1999.90;999.90;;;11.10;99.90;;;;;;6670684;88;20209;-77
2022/10/13 05:51:42;;;;;;;1999.90;999.90;;;11.10;99.90;;;;;;6652984;88;20196;-76
2022/10/13 06:01:43;;;;;;;1999.90;999.90;;;10.90;99.90;;;;;;6675044;88;20184;-77
2022/10/13 06:11:44;;;;;;;1999.90;999.90;;;10.90;99.90;;;;;;6699452;88;20322;-76
2022/10/13 06:21:44;;;;;;;1999.90;999.90;;;10.70;99.90;;;;;;6678903;88;20653;-76
2022/10/13 06:31:45;;;;;;;1999.90;999.90;;;10.80;99.90;;;;;;6709025;88;20298;-76
2022/10/13 06:41:45;;;;;;;1999.90;999.90;;;10.80;99.90;;;;;;6699683;88;20251;-77
2022/10/13 06:51:46;;;;;;;1999.90;999.90;;;10.80;99.90;;;;;;6661778;88;20622;-77
2022/10/13 07:01:47;;;;;;;1999.90;999.90;;;10.80;99.90;;;;;;6685890;88;20227;-78
2022/10/13 07:11:48;;;;;;;1999.90;999.90;;;10.90;99.90;;;;;;6719105;88;20178;-78
2022/10/13 07:21:49;;;;;;;1999.90;999.90;;;11.00;99.90;;;;;;6712116;88;20268;-77
2022/10/13 07:31:50;;;;;;;1999.90;999.90;;;11.10;99.90;;;;;;6718301;88;20259;-77
2022/10/13 07:41:50;;;;;;;1999.90;999.90;;;11.20;99.90;;;;;;6714034;88;20763;-77
2022/10/13 07:51:51;;;;;;;1999.90;999.90;;;11.40;99.90;;;;;;6691206;88;20793;-77
2022/10/13 08:01:51;;;;;;;1999.90;999.90;;;11.50;99.90;;;;;;6684375;88;20665;-77
2022/10/13 08:11:52;;;;;;;1999.90;999.90;;;11.80;99.90;;;;;;6647430;88;20367;-77
2022/10/13 08:21:53;;;;;;;1999.90;999.90;;;11.80;99.90;;;;;;6718620;88;21004;-77
2022/10/13 08:31:54;;;;;;;1999.90;999.90;;;12.20;99.90;;;;;;6699286;88;20202;-77
2022/10/13 08:41:56;;;;;;;1999.90;999.90;;;12.40;99.90;;;;;;6674203;88;20207;-77
2022/10/13 08:51:57;;;;;;;1999.90;999.90;;;12.90;99.90;;;;;;6711662;88;20230;-77
2022/10/13 09:01:58;;;;;;;1999.90;999.90;;;13.10;99.90;;;;;;6681859;88;20253;-77
2022/10/13 09:11:59;;;;;;;1999.90;999.90;;;13.60;99.90;;;;;;6698198;88;20212;-77
2022/10/13 09:22:28;;;;;;;1999.90;999.90;;;13.80;99.90;;;;;;6690665;88;20215;-78
2022/10/13 09:32:34;;;;;;;1999.90;999.90;;;14.50;99.90;;;;;;6667331;88;20176;-77
2022/10/13 09:42:35;;;;;;;1999.90;999.90;;;14.50;99.90;;;;;;6708263;77;20693;-77
2022/10/13 09:52:35;;;;;;;1999.90;999.90;;;14.70;99.90;;;;;;6690282;88;20201;-76
2022/10/13 10:03:04;;;;;;;1999.90;999.90;;;14.90;99.90;;;;;;6691579;88;20234;-78
2022/10/13 10:13:04;;;;;;;1999.90;999.90;;;15.30;99.90;;;;;;6692015;88;20220;-77
2022/10/13 10:23:13;;;;;;;1999.90;999.90;;;15.70;99.90;;;;;;6701553;88;20209;-79
2022/10/13 10:33:47;;;;;;;1999.90;999.90;;;15.80;99.90;;;;;;6703163;88;20507;-78
2022/10/13 10:43:55;;;;;;;1999.90;999.90;;;16.20;99.90;;;;;;6681535;88;20284;-77
2022/10/13 10:54:20;;;;;;;1999.90;999.90;;;16.30;99.90;;;;;;6696416;88;20278;-78
2022/10/13 11:04:40;;;;;;;1999.90;999.90;;;16.70;99.90;;;;;;6679714;88;20745;-78
2022/10/13 11:14:41;;;;;;;1999.90;999.90;;;17.10;99.90;;;;;;6699800;88;20654;-76
2022/10/13 11:24:46;;;;;;;1999.90;999.90;;;16.90;99.90;;;;;;6698951;88;20661;-76
2022/10/13 11:35:04;;;;;;;1999.90;999.90;;;16.70;99.90;;;;;;6692206;88;20649;-78
2022/10/13 11:45:35;;;;;;;1999.90;999.90;;;17.10;99.90;;;;;;6711095;88;20228;-77
2022/10/13 11:55:52;;;;;;;1999.90;999.90;;;17.50;99.90;;;;;;6707413;88;20212;-77
2022/10/13 12:05:58;;;;;;;1999.90;999.90;;;17.90;99.90;;;;;;6697177;88;20186;-76
2022/10/13 12:16:05;;;;;;;1999.90;999.90;;;18.00;99.90;;;;;;6705297;88;20241;-77
2022/10/13 12:26:06;;;;;;;1999.90;999.90;;;17.50;99.90;;;;;;6693509;88;20229;-79
2022/10/13 12:36:11;;;;;;;1999.90;999.90;;;17.20;99.90;;;;;;6699888;88;20215;-78
2022/10/13 12:46:12;;;;;;;1999.90;999.90;;;17.20;99.90;;;;;;6689147;88;20673;-80
2022/10/13 12:56:28;;;;;;;1999.90;999.90;;;17.10;99.90;;;;;;6702252;88;20212;-79
2022/10/13 13:06:35;;;;;;;1999.90;999.90;;;17.00;99.90;;;;;;6705929;88;20758;-76
2022/10/13 13:16:35;;;;;;;1999.90;999.90;;;16.50;99.90;;;;;;6702347;88;20281;-76
2022/10/13 13:26:36;;;;;;;1999.90;999.90;;;16.20;99.90;;;;;;6712202;88;20234;-75
2022/10/13 13:36:36;;;;;;;1999.90;999.90;;;15.70;99.90;;;;;;6698570;88;20201;-78
2022/10/13 13:46:37;;;;;;;1999.90;999.90;;;15.30;99.90;;;;;;6695513;88;20210;-77
2022/10/13 13:56:38;;;;;;;1999.90;999.90;;;15.00;99.90;;;;;;6683179;88;20210;-78
2022/10/13 14:06:38;;;;;;;1999.90;999.90;;;15.00;99.90;;;;;;6687908;88;20192;-78
2022/10/13 14:16:40;;;;;;;1999.90;999.90;;;15.10;99.90;;;;;;6686987;88;20202;-79
2022/10/13 14:26:40;;;;;;;1999.90;999.90;;;14.90;99.90;;;;;;6687995;88;20191;-76
2022/10/13 14:36:41;;;;;;;1999.90;999.90;;;15.00;99.90;;;;;;6694390;88;20243;-77
2022/10/13 14:46:42;;;;;;;1999.90;999.90;;;14.90;99.90;;;;;;6695080;88;20218;-77
2022/10/13 14:56:43;;;;;;;1999.90;999.90;;;14.80;99.90;;;;;;6695964;88;20743;-77
2022/10/13 15:06:44;;;;;;;1999.90;999.90;;;14.80;99.90;;;;;;6709523;88;20182;-78
2022/10/13 15:16:44;;;;;;;1999.90;999.90;;;14.80;99.90;;;;;;6703895;88;20193;-77
2022/10/13 15:26:45;;;;;;;1999.90;999.90;;;14.80;99.90;;;;;;6692477;88;20170;-77
2022/10/13 15:46:49;;;;;;;1999.90;999.90;;;14.70;99.90;;;;;;6745314;88;20220;-78
2022/10/13 15:56:50;;;;;;;1999.90;999.90;;;14.60;99.90;;;;;;6746950;88;20633;-77
2022/10/13 16:06:51;;;;;;;1999.90;999.90;;;14.70;99.90;;;;;;6741182;88;20192;-78
2022/10/13 16:16:51;;;;;;;1999.90;999.90;;;14.60;99.90;;;;;;6753248;88;20208;-79
2022/10/13 16:26:52;;;;;;;1999.90;999.90;;;14.50;99.90;;;;;;6761748;88;20609;-78
2022/10/13 16:36:53;;;;;;;1999.90;999.90;;;14.40;99.90;;;;;;6767030;88;20242;-79
2022/10/13 16:46:55;;;;;;;1999.90;999.90;;;14.40;99.90;;;;;;6745642;88;20616;-78
2022/10/13 16:56:56;;;;;;;1999.90;999.90;;;14.30;99.90;;;;;;6743466;88;20369;-78
2022/10/13 17:06:56;;;;;;;1999.90;999.90;;;14.20;99.90;;;;;;6743397;88;20192;-79
2022/10/13 17:16:57;;;;;;;1999.90;999.90;;;14.20;99.90;;;;;;6743239;88;20482;-79
2022/10/13 17:26:57;;;;;;;1999.90;999.90;;;14.10;99.90;;;;;;6743949;88;20199;-79
2022/10/13 17:36:58;;;;;;;1999.90;999.90;;;14.20;99.90;;;;;;6746551;87;20199;-78
2022/10/13 17:46:58;;;;;;;1999.90;999.90;;;14.00;99.90;;;;;;6743405;88;20259;-79
2022/10/13 17:56:59;;;;;;;1999.90;999.90;;;14.00;99.90;;;;;;6739154;88;20237;-78
2022/10/13 18:06:59;;;;;;;1999.90;999.90;;;14.00;99.90;;;;;;6734421;88;20413;-78
2022/10/13 18:17:00;;;;;;;1999.90;999.90;;;14.00;99.90;;;;;;6723830;88;21061;-79
2022/10/13 18:27:00;;;;;;;1999.90;999.90;;;13.90;99.90;;;;;;6738446;88;20716;-79
2022/10/13 18:37:02;;;;;;;1999.90;999.90;;;14.10;99.90;;;;;;6736026;88;20617;-78
2022/10/13 18:47:05;;;;;;;1999.90;999.90;;;14.10;99.90;;;;;;6738343;88;20417;-78
2022/10/13 18:57:06;;;;;;;1999.90;999.90;;;14.20;99.90;;;;;;6735176;88;20200;-78
2022/10/13 19:07:06;;;;;;;1999.90;999.90;;;14.10;99.90;;;;;;6747771;88;20728;-78
2022/10/13 19:17:07;;;;;;;1999.90;999.90;;;14.00;99.90;;;;;;6741091;88;20206;-78
2022/10/13 19:27:07;;;;;;;1999.90;999.90;;;13.90;99.90;;;;;;6741172;88;20192;-79
2022/10/13 19:37:08;;;;;;;1999.90;999.90;;;13.80;99.90;;;;;;6727251;87;20191;-78
2022/10/13 19:47:31;;;;;;;1999.90;999.90;;;13.80;99.90;;;;;;6741664;88;20193;-79
2022/10/13 19:57:32;;;;;;;1999.90;999.90;;;13.80;99.90;;;;;;6739737;88;20161;-79
2022/10/13 20:07:39;;;;;;;1999.90;999.90;;;13.70;99.90;;;;;;6743368;88;20219;-78
2022/10/13 20:17:46;;;;;;;1999.90;999.90;;;13.60;99.90;;;;;;6734551;88;21139;-78
2022/10/13 20:27:50;;;;;;;1999.90;999.90;;;13.50;99.90;;;;;;6738671;88;20775;-78
2022/10/13 20:37:54;;;;;;;1999.90;999.90;;;13.50;99.90;;;;;;6742956;88;20221;-79
2022/10/13 20:47:57;;;;;;;1999.90;999.90;;;13.40;99.90;;;;;;6738787;88;20716;-78
2022/10/13 20:58:01;;;;;;;1999.90;999.90;;;13.30;99.90;;;;;;6736853;88;20641;-78
2022/10/13 21:08:07;;;;;;;1999.90;999.90;;;13.30;99.90;;;;;;6729916;88;20204;-78
2022/10/13 21:18:11;;;;;;;1999.90;999.90;;;13.20;99.90;;;;;;6737491;88;20192;-79
2022/10/13 21:28:12;;;;;;;1999.90;999.90;;;13.30;99.90;;;;;;6739821;88;20189;-78
2022/10/13 21:38:13;;;;;;;1999.90;999.90;;;13.30;99.90;;;;;;6742101;77;20196;-76
2022/10/13 21:48:14;;;;;;;1999.90;999.90;;;13.40;99.90;;;;;;6731678;88;20695;-75
2022/10/13 21:58:14;;;;;;;1999.90;999.90;;;13.20;99.90;;;;;;6736334;88;20192;-75
2022/10/13 22:08:15;;;;;;;1999.90;999.90;;;13.30;99.90;;;;;;6744341;88;20192;-75
2022/10/13 22:18:15;;;;;;;1999.90;999.90;;;13.30;99.90;;;;;;6739586;88;20633;-75
2022/10/13 22:28:16;;;;;;;1999.90;999.90;;;13.20;99.90;;;;;;6742158;88;20574;-75
2022/10/13 22:38:16;;;;;;;1999.90;999.90;;;13.20;99.90;;;;;;6733923;88;21002;-75
2022/10/13 22:48:17;;;;;;;1999.90;999.90;;;13.20;99.90;;;;;;6750716;88;20265;-74
2022/10/13 22:58:17;;;;;;;1999.90;999.90;;;13.10;99.90;;;;;;6751928;88;20713;-74
2022/10/13 23:08:18;;;;;;;1999.90;999.90;;;13.00;99.90;;;;;;6740802;88;20229;-74
2022/10/13 23:18:18;;;;;;;1999.90;999.90;;;12.90;99.90;;;;;;6739028;88;20181;-76
2022/10/13 23:28:19;;;;;;;1999.90;999.90;;;13.00;99.90;;;;;;6736466;88;20213;-76
2022/10/13 23:38:19;;;;;;;1999.90;999.90;;;12.90;99.90;;;;;;6738516;88;20241;-75
2022/10/13 23:48:20;;;;;;;1999.90;999.90;;;12.90;99.90;;;;;;6734634;88;20188;-75
2022/10/13 23:58:20;;;;;;;1999.90;999.90;;;12.90;99.90;;;;;;6735668;88;20518;-75
